New Kingstown, Pennsylvania
Current Conditions -  °F | °C
As of 11:56 AM on Wednesday 26 Nov 2014 (Local Time) from KCXY Reporting Station
Moderate Snow Moderate Snow  
Wind Chill: 33°   Ceiling: 400
Heat Index: 33°   Visibility: 0.5mi
Dew Point: 32°   Wind: 0mph
Humidity: 96%   Direction: NA
Pressure: 30.04"   Gusts: NA
Location:  40.23°N, 77.08°W
Report Text: KCXY 261656Z 00000KT 1/2SM R08/3500V4000FT SN FG OVC004 01/00 A3004 RMK AO2 PRESFR SLP177 P0002 T00060000
Loading
Personal Weather Stations






























Interactive Weather Map New forecast layout! Learn more

10-Day Weather Forecast

Advertisements
Track Severe Weather on mobile